sensor_id;sensor_type;location;lat;lon;timestamp;temperature;humidity
29403;DHT22;16382;59.942;30.472;2022-12-16T00:02:17;-4.90;99.90
29403;DHT22;16382;59.942;30.472;2022-12-16T00:04:45;-4.90;99.90
29403;DHT22;16382;59.942;30.472;2022-12-16T00:07:12;-5.00;99.90
29403;DHT22;16382;59.942;30.472;2022-12-16T00:09:41;-5.00;99.90
29403;DHT22;16382;59.942;30.472;2022-12-16T00:12:09;-5.00;99.90
29403;DHT22;16382;59.942;30.472;2022-12-16T00:14:36;-5.00;99.90
29403;DHT22;16382;59.942;30.472;2022-12-16T00:17:03;-5.00;99.90
29403;DHT22;16382;59.942;30.472;2022-12-16T00:19:31;-5.00;99.90
29403;DHT22;16382;59.942;30.472;2022-12-16T00:21:59;-5.10;99.90
29403;DHT22;16382;59.942;30.472;2022-12-16T00:24:26;-5.20;99.90
29403;DHT22;16382;59.942;30.472;2022-12-16T00:26:57;-5.20;99.90
29403;DHT22;16382;59.942;30.472;2022-12-16T00:29:25;-5.20;99.90
29403;DHT22;16382;59.942;30.472;2022-12-16T00:31:53;-5.30;99.90
29403;DHT22;16382;59.942;30.472;2022-12-16T00:34:20;-5.30;99.90
29403;DHT22;16382;59.942;30.472;2022-12-16T00:36:48;-5.20;99.90
29403;DHT22;16382;59.942;30.472;2022-12-16T00:39:15;-5.20;99.90
29403;DHT22;16382;59.942;30.472;2022-12-16T00:41:43;-5.30;99.90
29403;DHT22;16382;59.942;30.472;2022-12-16T00:44:13;-5.30;99.90
29403;DHT22;16382;59.942;30.472;2022-12-16T00:46:41;-5.30;99.90
29403;DHT22;16382;59.942;30.472;2022-12-16T00:49:09;-5.30;99.90
29403;DHT22;16382;59.942;30.472;2022-12-16T00:51:36;-5.30;99.90
29403;DHT22;16382;59.942;30.472;2022-12-16T00:54:04;-5.30;99.90
29403;DHT22;16382;59.942;30.472;2022-12-16T00:56:31;-5.20;99.90
29403;DHT22;16382;59.942;30.472;2022-12-16T00:59:02;-5.20;99.90
29403;DHT22;16382;59.942;30.472;2022-12-16T01:01:31;-5.10;99.90
29403;DHT22;16382;59.942;30.472;2022-12-16T01:03:58;-5.10;99.90
29403;DHT22;16382;59.942;30.472;2022-12-16T01:06:26;-5.10;99.90
29403;DHT22;16382;59.942;30.472;2022-12-16T01:08:53;-5.10;99.90
29403;DHT22;16382;59.942;30.472;2022-12-16T01:11:21;-5.10;99.90
29403;DHT22;16382;59.942;30.472;2022-12-16T01:13:49;-5.10;99.90
29403;DHT22;16382;59.942;30.472;2022-12-16T01:16:18;-5.10;99.90
29403;DHT22;16382;59.942;30.472;2022-12-16T01:18:47;-5.10;99.90
29403;DHT22;16382;59.942;30.472;2022-12-16T01:21:15;-5.10;99.90
29403;DHT22;16382;59.942;30.472;2022-12-16T01:23:42;-5.00;99.90
29403;DHT22;16382;59.942;30.472;2022-12-16T01:26:14;-5.00;99.90
29403;DHT22;16382;59.942;30.472;2022-12-16T01:28:42;-4.90;99.90
29403;DHT22;16382;59.942;30.472;2022-12-16T01:31:10;-4.90;99.90
29403;DHT22;16382;59.942;30.472;2022-12-16T01:33:41;-4.90;99.90
29403;DHT22;16382;59.942;30.472;2022-12-16T01:36:10;-4.80;99.90
29403;DHT22;16382;59.942;30.472;2022-12-16T01:38:41;-4.80;99.90
29403;DHT22;16382;59.942;30.472;2022-12-16T01:41:11;-4.80;99.90
29403;DHT22;16382;59.942;30.472;2022-12-16T01:43:42;-4.80;99.90
29403;DHT22;16382;59.942;30.472;2022-12-16T01:46:16;-4.80;99.90
29403;DHT22;16382;59.942;30.472;2022-12-16T01:48:49;-4.90;99.90
29403;DHT22;16382;59.942;30.472;2022-12-16T01:51:23;-4.80;99.90
29403;DHT22;16382;59.942;30.472;2022-12-16T01:53:56;-4.80;99.90
29403;DHT22;16382;59.942;30.472;2022-12-16T01:56:30;-4.80;99.90
29403;DHT22;16382;59.942;30.472;2022-12-16T01:58:58;-4.90;99.90
29403;DHT22;16382;59.942;30.472;2022-12-16T02:01:26;-4.80;99.90
29403;DHT22;16382;59.942;30.472;2022-12-16T02:03:56;-4.90;99.90
29403;DHT22;16382;59.942;30.472;2022-12-16T02:06:29;-4.90;99.90
29403;DHT22;16382;59.942;30.472;2022-12-16T02:08:58;-5.00;99.90
29403;DHT22;16382;59.942;30.472;2022-12-16T02:11:40;-5.10;99.90
29403;DHT22;16382;59.942;30.472;2022-12-16T02:14:45;-5.10;99.90
29403;DHT22;16382;59.942;30.472;2022-12-16T02:17:26;-5.20;99.90
29403;DHT22;16382;59.942;30.472;2022-12-16T02:20:45;-5.20;99.90
29403;DHT22;16382;59.942;30.472;2022-12-16T02:23:42;-5.20;99.90
29403;DHT22;16382;59.942;30.472;2022-12-16T02:30:05;-5.30;99.90
29403;DHT22;16382;59.942;30.472;2022-12-16T02:32:54;-5.30;99.90
29403;DHT22;16382;59.942;30.472;2022-12-16T02:35:32;-5.30;99.90
29403;DHT22;16382;59.942;30.472;2022-12-16T02:38:13;-5.30;99.90
29403;DHT22;16382;59.942;30.472;2022-12-16T02:40:52;-5.30;99.90
29403;DHT22;16382;59.942;30.472;2022-12-16T02:43:31;-5.30;99.90
29403;DHT22;16382;59.942;30.472;2022-12-16T02:46:08;-5.30;99.90
29403;DHT22;16382;59.942;30.472;2022-12-16T02:48:37;-5.30;99.90
29403;DHT22;16382;59.942;30.472;2022-12-16T02:51:05;-5.30;99.90
29403;DHT22;16382;59.942;30.472;2022-12-16T02:53:35;-5.20;99.90
29403;DHT22;16382;59.942;30.472;2022-12-16T02:56:10;-5.20;99.90
29403;DHT22;16382;59.942;30.472;2022-12-16T02:58:48;-5.20;99.90
29403;DHT22;16382;59.942;30.472;2022-12-16T03:01:24;-5.20;99.90
29403;DHT22;16382;59.942;30.472;2022-12-16T03:04:02;-5.10;99.90
29403;DHT22;16382;59.942;30.472;2022-12-16T03:06:35;-5.00;99.90
29403;DHT22;16382;59.942;30.472;2022-12-16T03:09:06;-5.00;99.90
29403;DHT22;16382;59.942;30.472;2022-12-16T03:11:37;-5.00;99.90
29403;DHT22;16382;59.942;30.472;2022-12-16T03:14:09;-5.00;99.90
29403;DHT22;16382;59.942;30.472;2022-12-16T03:16:40;-5.00;99.90
29403;DHT22;16382;59.942;30.472;2022-12-16T03:19:11;-5.00;99.90
29403;DHT22;16382;59.942;30.472;2022-12-16T03:21:44;-5.00;99.90
29403;DHT22;16382;59.942;30.472;2022-12-16T03:24:18;-5.00;99.90
29403;DHT22;16382;59.942;30.472;2022-12-16T03:26:52;-5.00;99.90
29403;DHT22;16382;59.942;30.472;2022-12-16T03:29:26;-5.00;99.90
29403;DHT22;16382;59.942;30.472;2022-12-16T03:32:04;-5.10;99.90
29403;DHT22;16382;59.942;30.472;2022-12-16T03:34:41;-5.00;99.90
29403;DHT22;16382;59.942;30.472;2022-12-16T03:37:12;-5.10;99.90
29403;DHT22;16382;59.942;30.472;2022-12-16T03:39:42;-5.10;99.90
29403;DHT22;16382;59.942;30.472;2022-12-16T03:42:13;-5.10;99.90
29403;DHT22;16382;59.942;30.472;2022-12-16T03:44:42;-5.10;99.90
29403;DHT22;16382;59.942;30.472;2022-12-16T03:47:11;-5.20;99.90
29403;DHT22;16382;59.942;30.472;2022-12-16T03:49:40;-5.20;99.90
29403;DHT22;16382;59.942;30.472;2022-12-16T03:52:08;-5.20;99.90
29403;DHT22;16382;59.942;30.472;2022-12-16T03:54:35;-5.30;99.90
29403;DHT22;16382;59.942;30.472;2022-12-16T03:57:03;-5.30;99.90
29403;DHT22;16382;59.942;30.472;2022-12-16T03:59:30;-5.30;99.90
29403;DHT22;16382;59.942;30.472;2022-12-16T04:01:58;-5.30;99.90
29403;DHT22;16382;59.942;30.472;2022-12-16T04:04:26;-5.40;99.90
29403;DHT22;16382;59.942;30.472;2022-12-16T04:06:55;-5.30;99.90
29403;DHT22;16382;59.942;30.472;2022-12-16T04:09:37;-5.30;99.90
29403;DHT22;16382;59.942;30.472;2022-12-16T04:12:04;-5.40;99.90
29403;DHT22;16382;59.942;30.472;2022-12-16T04:14:49;-5.40;99.90
29403;DHT22;16382;59.942;30.472;2022-12-16T04:17:34;-5.40;99.90
29403;DHT22;16382;59.942;30.472;2022-12-16T04:20:21;-5.30;99.90
29403;DHT22;16382;59.942;30.472;2022-12-16T04:23:24;-5.20;99.90
29403;DHT22;16382;59.942;30.472;2022-12-16T04:26:10;-5.10;99.90
29403;DHT22;16382;59.942;30.472;2022-12-16T04:28:40;-5.10;99.90
29403;DHT22;16382;59.942;30.472;2022-12-16T04:31:08;-5.10;99.90
29403;DHT22;16382;59.942;30.472;2022-12-16T04:33:36;-5.10;99.90
29403;DHT22;16382;59.942;30.472;2022-12-16T04:36:21;-5.20;99.90
29403;DHT22;16382;59.942;30.472;2022-12-16T04:39:09;-5.20;99.90
29403;DHT22;16382;59.942;30.472;2022-12-16T04:41:54;-5.20;99.90
29403;DHT22;16382;59.942;30.472;2022-12-16T04:44:39;-5.20;99.90
29403;DHT22;16382;59.942;30.472;2022-12-16T04:47:24;-5.20;99.90
29403;DHT22;16382;59.942;30.472;2022-12-16T04:50:10;-5.20;99.90
29403;DHT22;16382;59.942;30.472;2022-12-16T04:52:55;-5.20;99.90
29403;DHT22;16382;59.942;30.472;2022-12-16T04:55:41;-5.20;99.90
29403;DHT22;16382;59.942;30.472;2022-12-16T04:58:27;-5.10;99.90
29403;DHT22;16382;59.942;30.472;2022-12-16T05:01:15;-5.10;99.90
29403;DHT22;16382;59.942;30.472;2022-12-16T05:04:00;-5.10;99.90
29403;DHT22;16382;59.942;30.472;2022-12-16T05:06:46;-5.10;99.90
29403;DHT22;16382;59.942;30.472;2022-12-16T05:09:32;-5.10;99.90
29403;DHT22;16382;59.942;30.472;2022-12-16T05:12:19;-5.10;99.90
29403;DHT22;16382;59.942;30.472;2022-12-16T05:15:05;-5.20;99.90
29403;DHT22;16382;59.942;30.472;2022-12-16T05:17:51;-5.20;99.90
29403;DHT22;16382;59.942;30.472;2022-12-16T05:20:36;-5.20;99.90
29403;DHT22;16382;59.942;30.472;2022-12-16T05:23:18;-5.20;99.90
29403;DHT22;16382;59.942;30.472;2022-12-16T05:26:03;-5.10;99.90
29403;DHT22;16382;59.942;30.472;2022-12-16T05:28:49;-5.10;99.90
29403;DHT22;16382;59.942;30.472;2022-12-16T05:31:38;-5.10;99.90
29403;DHT22;16382;59.942;30.472;2022-12-16T05:34:22;-5.10;99.90
29403;DHT22;16382;59.942;30.472;2022-12-16T05:37:08;-5.10;99.90
29403;DHT22;16382;59.942;30.472;2022-12-16T05:39:52;-5.10;99.90
29403;DHT22;16382;59.942;30.472;2022-12-16T05:42:39;-5.10;99.90
29403;DHT22;16382;59.942;30.472;2022-12-16T05:45:25;-5.10;99.90
29403;DHT22;16382;59.942;30.472;2022-12-16T05:48:10;-5.00;99.90
29403;DHT22;16382;59.942;30.472;2022-12-16T05:50:55;-5.00;99.90
29403;DHT22;16382;59.942;30.472;2022-12-16T05:53:41;-5.00;99.90
29403;DHT22;16382;59.942;30.472;2022-12-16T05:56:26;-5.10;99.90
29403;DHT22;16382;59.942;30.472;2022-12-16T05:59:11;-5.20;99.90
29403;DHT22;16382;59.942;30.472;2022-12-16T06:01:57;-5.20;99.90
29403;DHT22;16382;59.942;30.472;2022-12-16T06:04:41;-5.30;99.90
29403;DHT22;16382;59.942;30.472;2022-12-16T06:07:26;-5.30;99.90
29403;DHT22;16382;59.942;30.472;2022-12-16T06:10:11;-5.30;99.90
29403;DHT22;16382;59.942;30.472;2022-12-16T06:12:56;-5.30;99.90
29403;DHT22;16382;59.942;30.472;2022-12-16T06:15:41;-5.30;99.90
29403;DHT22;16382;59.942;30.472;2022-12-16T06:18:27;-5.30;99.90
29403;DHT22;16382;59.942;30.472;2022-12-16T06:21:12;-5.30;99.90
29403;DHT22;16382;59.942;30.472;2022-12-16T06:23:57;-5.30;99.90
29403;DHT22;16382;59.942;30.472;2022-12-16T06:26:42;-5.40;99.90
29403;DHT22;16382;59.942;30.472;2022-12-16T06:29:28;-5.50;99.90
29403;DHT22;16382;59.942;30.472;2022-12-16T06:32:13;-5.50;99.90
29403;DHT22;16382;59.942;30.472;2022-12-16T06:35:01;-5.50;99.90
29403;DHT22;16382;59.942;30.472;2022-12-16T06:38:00;-5.50;99.90
29403;DHT22;16382;59.942;30.472;2022-12-16T06:41:13;-5.50;99.90
29403;DHT22;16382;59.942;30.472;2022-12-16T06:44:06;-5.50;99.90
29403;DHT22;16382;59.942;30.472;2022-12-16T06:47:12;-5.40;99.90
29403;DHT22;16382;59.942;30.472;2022-12-16T06:50:04;-5.40;99.90
29403;DHT22;16382;59.942;30.472;2022-12-16T06:52:55;-5.40;99.90
29403;DHT22;16382;59.942;30.472;2022-12-16T06:55:47;-5.40;99.90
29403;DHT22;16382;59.942;30.472;2022-12-16T06:58:32;-5.40;99.90
29403;DHT22;16382;59.942;30.472;2022-12-16T07:01:16;-5.40;99.90
29403;DHT22;16382;59.942;30.472;2022-12-16T07:04:01;-5.40;99.90
29403;DHT22;16382;59.942;30.472;2022-12-16T07:06:49;-5.40;99.90
29403;DHT22;16382;59.942;30.472;2022-12-16T07:09:33;-5.30;99.90
29403;DHT22;16382;59.942;30.472;2022-12-16T07:12:28;-5.40;99.90
29403;DHT22;16382;59.942;30.472;2022-12-16T07:15:13;-5.30;99.90
29403;DHT22;16382;59.942;30.472;2022-12-16T07:17:58;-5.20;99.90
29403;DHT22;16382;59.942;30.472;2022-12-16T07:20:43;-5.20;99.90
29403;DHT22;16382;59.942;30.472;2022-12-16T07:23:29;-5.10;99.90
29403;DHT22;16382;59.942;30.472;2022-12-16T07:26:14;-5.00;99.90
29403;DHT22;16382;59.942;30.472;2022-12-16T07:28:58;-5.00;99.90
29403;DHT22;16382;59.942;30.472;2022-12-16T07:31:43;-5.00;99.90
29403;DHT22;16382;59.942;30.472;2022-12-16T07:34:29;-4.90;99.90
29403;DHT22;16382;59.942;30.472;2022-12-16T07:37:14;-4.80;99.90
29403;DHT22;16382;59.942;30.472;2022-12-16T07:40:00;-4.80;99.90
29403;DHT22;16382;59.942;30.472;2022-12-16T07:42:46;-4.70;99.90
29403;DHT22;16382;59.942;30.472;2022-12-16T07:45:31;-4.80;99.90
29403;DHT22;16382;59.942;30.472;2022-12-16T07:48:16;-4.80;99.90
29403;DHT22;16382;59.942;30.472;2022-12-16T07:51:01;-4.90;99.90
29403;DHT22;16382;59.942;30.472;2022-12-16T07:53:46;-4.90;99.90
29403;DHT22;16382;59.942;30.472;2022-12-16T07:56:33;-4.80;99.90
29403;DHT22;16382;59.942;30.472;2022-12-16T07:59:18;-4.80;99.90
29403;DHT22;16382;59.942;30.472;2022-12-16T08:02:03;-4.80;99.90
29403;DHT22;16382;59.942;30.472;2022-12-16T08:04:48;-4.80;99.90
29403;DHT22;16382;59.942;30.472;2022-12-16T08:07:33;-4.80;99.90
29403;DHT22;16382;59.942;30.472;2022-12-16T08:10:21;-4.80;99.90
29403;DHT22;16382;59.942;30.472;2022-12-16T08:13:08;-4.80;99.90
29403;DHT22;16382;59.942;30.472;2022-12-16T08:15:53;-4.70;99.90
29403;DHT22;16382;59.942;30.472;2022-12-16T08:18:38;-4.70;99.90
29403;DHT22;16382;59.942;30.472;2022-12-16T08:21:23;-4.60;99.90
29403;DHT22;16382;59.942;30.472;2022-12-16T08:24:08;-4.50;99.90
29403;DHT22;16382;59.942;30.472;2022-12-16T08:26:54;-4.60;99.90
29403;DHT22;16382;59.942;30.472;2022-12-16T08:29:40;-4.50;99.90
29403;DHT22;16382;59.942;30.472;2022-12-16T08:32:38;-4.50;99.90
29403;DHT22;16382;59.942;30.472;2022-12-16T08:35:33;-4.40;99.90
29403;DHT22;16382;59.942;30.472;2022-12-16T08:38:19;-4.30;99.90
29403;DHT22;16382;59.942;30.472;2022-12-16T08:41:04;-4.30;99.90
29403;DHT22;16382;59.942;30.472;2022-12-16T08:43:49;-4.30;99.90
29403;DHT22;16382;59.942;30.472;2022-12-16T08:46:36;-4.30;99.90
29403;DHT22;16382;59.942;30.472;2022-12-16T08:49:21;-4.30;99.90
29403;DHT22;16382;59.942;30.472;2022-12-16T08:52:06;-4.20;99.90
29403;DHT22;16382;59.942;30.472;2022-12-16T08:55:00;-4.30;99.90
29403;DHT22;16382;59.942;30.472;2022-12-16T08:57:52;-4.30;99.90
29403;DHT22;16382;59.942;30.472;2022-12-16T09:00:37;-4.30;99.90
29403;DHT22;16382;59.942;30.472;2022-12-16T09:03:24;-4.30;99.90
29403;DHT22;16382;59.942;30.472;2022-12-16T09:06:09;-4.30;99.90
29403;DHT22;16382;59.942;30.472;2022-12-16T09:08:54;-4.30;99.90
29403;DHT22;16382;59.942;30.472;2022-12-16T09:11:39;-4.40;99.90
29403;DHT22;16382;59.942;30.472;2022-12-16T09:14:25;-4.40;99.90
29403;DHT22;16382;59.942;30.472;2022-12-16T09:17:10;-4.40;99.90
29403;DHT22;16382;59.942;30.472;2022-12-16T09:19:56;-4.30;99.90
29403;DHT22;16382;59.942;30.472;2022-12-16T09:22:41;-4.20;99.90
29403;DHT22;16382;59.942;30.472;2022-12-16T09:25:26;-4.20;99.90
29403;DHT22;16382;59.942;30.472;2022-12-16T09:28:12;-4.20;99.90
29403;DHT22;16382;59.942;30.472;2022-12-16T09:30:57;-4.20;99.90
29403;DHT22;16382;59.942;30.472;2022-12-16T09:33:42;-4.10;99.90
29403;DHT22;16382;59.942;30.472;2022-12-16T09:36:29;-4.20;99.90
29403;DHT22;16382;59.942;30.472;2022-12-16T09:39:14;-4.30;99.90
29403;DHT22;16382;59.942;30.472;2022-12-16T09:42:05;-4.30;99.90
29403;DHT22;16382;59.942;30.472;2022-12-16T09:45:01;-4.30;99.90
29403;DHT22;16382;59.942;30.472;2022-12-16T09:47:54;-4.20;99.90
29403;DHT22;16382;59.942;30.472;2022-12-16T09:50:43;-4.10;99.90
29403;DHT22;16382;59.942;30.472;2022-12-16T09:53:34;-4.10;99.90
29403;DHT22;16382;59.942;30.472;2022-12-16T09:56:24;-4.10;99.90
29403;DHT22;16382;59.942;30.472;2022-12-16T09:59:14;-4.10;99.90
29403;DHT22;16382;59.942;30.472;2022-12-16T10:02:10;-4.00;99.90
29403;DHT22;16382;59.942;30.472;2022-12-16T10:04:56;-4.00;99.90
29403;DHT22;16382;59.942;30.472;2022-12-16T10:07:45;-3.90;99.90
29403;DHT22;16382;59.942;30.472;2022-12-16T10:10:45;-4.00;99.90
29403;DHT22;16382;59.942;30.472;2022-12-16T10:13:38;-4.00;99.90
29403;DHT22;16382;59.942;30.472;2022-12-16T10:16:30;-4.10;99.90
29403;DHT22;16382;59.942;30.472;2022-12-16T10:19:24;-4.20;99.90
29403;DHT22;16382;59.942;30.472;2022-12-16T10:22:19;-4.20;99.90
29403;DHT22;16382;59.942;30.472;2022-12-16T10:25:10;-4.30;99.90
29403;DHT22;16382;59.942;30.472;2022-12-16T10:28:10;-4.30;99.90
29403;DHT22;16382;59.942;30.472;2022-12-16T10:31:01;-4.20;99.90
29403;DHT22;16382;59.942;30.472;2022-12-16T10:33:49;-4.20;99.90
29403;DHT22;16382;59.942;30.472;2022-12-16T10:36:35;-4.20;99.90
29403;DHT22;16382;59.942;30.472;2022-12-16T10:39:26;-4.30;99.90
29403;DHT22;16382;59.942;30.472;2022-12-16T10:42:19;-4.30;99.90
29403;DHT22;16382;59.942;30.472;2022-12-16T10:45:18;-4.30;99.90
29403;DHT22;16382;59.942;30.472;2022-12-16T10:48:05;-4.30;99.90
29403;DHT22;16382;59.942;30.472;2022-12-16T10:50:51;-4.20;99.90
29403;DHT22;16382;59.942;30.472;2022-12-16T10:53:36;-4.20;99.90
29403;DHT22;16382;59.942;30.472;2022-12-16T10:56:36;-4.20;99.90
29403;DHT22;16382;59.942;30.472;2022-12-16T10:59:35;-4.10;99.90
29403;DHT22;16382;59.942;30.472;2022-12-16T11:02:25;-4.10;99.90
29403;DHT22;16382;59.942;30.472;2022-12-16T11:05:27;-4.20;99.90
29403;DHT22;16382;59.942;30.472;2022-12-16T11:08:25;-4.20;99.90
29403;DHT22;16382;59.942;30.472;2022-12-16T11:11:21;-4.20;99.90
29403;DHT22;16382;59.942;30.472;2022-12-16T11:14:15;-4.20;99.90
29403;DHT22;16382;59.942;30.472;2022-12-16T11:17:18;-4.30;99.90
29403;DHT22;16382;59.942;30.472;2022-12-16T11:20:14;-4.30;99.90
29403;DHT22;16382;59.942;30.472;2022-12-16T11:23:13;-4.40;99.90
29403;DHT22;16382;59.942;30.472;2022-12-16T11:26:09;-4.40;99.90
29403;DHT22;16382;59.942;30.472;2022-12-16T11:29:10;-4.50;99.90
29403;DHT22;16382;59.942;30.472;2022-12-16T11:31:59;-4.50;99.90
29403;DHT22;16382;59.942;30.472;2022-12-16T11:34:51;-4.50;99.90
29403;DHT22;16382;59.942;30.472;2022-12-16T11:37:40;-4.50;99.90
29403;DHT22;16382;59.942;30.472;2022-12-16T11:40:27;-4.50;99.90
29403;DHT22;16382;59.942;30.472;2022-12-16T11:43:14;-4.50;99.90
29403;DHT22;16382;59.942;30.472;2022-12-16T11:46:04;-4.50;99.90
29403;DHT22;16382;59.942;30.472;2022-12-16T11:48:56;-4.50;99.90
29403;DHT22;16382;59.942;30.472;2022-12-16T11:51:45;-4.50;99.90
29403;DHT22;16382;59.942;30.472;2022-12-16T11:54:45;-4.40;99.90
29403;DHT22;16382;59.942;30.472;2022-12-16T11:57:41;-4.40;99.90
29403;DHT22;16382;59.942;30.472;2022-12-16T12:00:29;-4.50;99.90
29403;DHT22;16382;59.942;30.472;2022-12-16T12:03:18;-4.50;99.90
29403;DHT22;16382;59.942;30.472;2022-12-16T12:06:11;-4.50;99.90
29403;DHT22;16382;59.942;30.472;2022-12-16T12:09:09;-4.50;99.90
29403;DHT22;16382;59.942;30.472;2022-12-16T12:12:09;-4.60;99.90
29403;DHT22;16382;59.942;30.472;2022-12-16T12:15:07;-4.60;99.90
29403;DHT22;16382;59.942;30.472;2022-12-16T12:18:00;-4.60;99.90
29403;DHT22;16382;59.942;30.472;2022-12-16T12:20:54;-4.60;99.90
29403;DHT22;16382;59.942;30.472;2022-12-16T12:23:49;-4.60;99.90
29403;DHT22;16382;59.942;30.472;2022-12-16T12:26:43;-4.70;99.90
29403;DHT22;16382;59.942;30.472;2022-12-16T12:29:45;-4.60;99.90
29403;DHT22;16382;59.942;30.472;2022-12-16T12:32:43;-4.60;99.90
29403;DHT22;16382;59.942;30.472;2022-12-16T12:35:44;-4.70;99.90
29403;DHT22;16382;59.942;30.472;2022-12-16T12:38:42;-4.60;99.90
29403;DHT22;16382;59.942;30.472;2022-12-16T12:41:49;-4.60;99.90
29403;DHT22;16382;59.942;30.472;2022-12-16T12:44:57;-4.50;99.90
29403;DHT22;16382;59.942;30.472;2022-12-16T12:48:05;-4.50;99.90
29403;DHT22;16382;59.942;30.472;2022-12-16T12:50:58;-4.50;99.90
29403;DHT22;16382;59.942;30.472;2022-12-16T12:53:53;-4.60;99.90
29403;DHT22;16382;59.942;30.472;2022-12-16T12:56:47;-4.60;99.90
29403;DHT22;16382;59.942;30.472;2022-12-16T12:59:44;-4.70;99.90
29403;DHT22;16382;59.942;30.472;2022-12-16T13:02:42;-4.70;99.90
29403;DHT22;16382;59.942;30.472;2022-12-16T13:05:33;-4.70;99.90
29403;DHT22;16382;59.942;30.472;2022-12-16T13:08:42;-4.70;99.90
29403;DHT22;16382;59.942;30.472;2022-12-16T13:11:33;-4.70;99.90
29403;DHT22;16382;59.942;30.472;2022-12-16T13:14:53;-4.70;99.90
29403;DHT22;16382;59.942;30.472;2022-12-16T13:18:21;-4.70;99.90
29403;DHT22;16382;59.942;30.472;2022-12-16T13:21:45;-4.70;99.90
29403;DHT22;16382;59.942;30.472;2022-12-16T13:24:41;-4.70;99.90
29403;DHT22;16382;59.942;30.472;2022-12-16T13:27:50;-4.70;99.90
29403;DHT22;16382;59.942;30.472;2022-12-16T13:30:38;-4.70;99.90
29403;DHT22;16382;59.942;30.472;2022-12-16T13:33:27;-4.80;99.90
29403;DHT22;16382;59.942;30.472;2022-12-16T13:36:14;-4.90;99.90
29403;DHT22;16382;59.942;30.472;2022-12-16T13:39:20;-4.90;99.90
29403;DHT22;16382;59.942;30.472;2022-12-16T13:42:35;-4.90;99.90
29403;DHT22;16382;59.942;30.472;2022-12-16T13:45:35;-4.90;99.90
29403;DHT22;16382;59.942;30.472;2022-12-16T13:48:29;-4.90;99.90
29403;DHT22;16382;59.942;30.472;2022-12-16T13:54:43;-5.00;99.90
29403;DHT22;16382;59.942;30.472;2022-12-16T13:57:36;-5.10;99.90
29403;DHT22;16382;59.942;30.472;2022-12-16T14:00:25;-5.00;99.90
29403;DHT22;16382;59.942;30.472;2022-12-16T14:03:17;-5.00;99.90
29403;DHT22;16382;59.942;30.472;2022-12-16T14:06:14;-5.00;99.90
29403;DHT22;16382;59.942;30.472;2022-12-16T14:09:03;-5.10;99.90
29403;DHT22;16382;59.942;30.472;2022-12-16T14:11:52;-5.10;99.90
29403;DHT22;16382;59.942;30.472;2022-12-16T14:14:44;-5.10;99.90
29403;DHT22;16382;59.942;30.472;2022-12-16T14:17:36;-5.20;99.90
29403;DHT22;16382;59.942;30.472;2022-12-16T14:20:29;-5.20;99.90
29403;DHT22;16382;59.942;30.472;2022-12-16T14:23:27;-5.30;99.90
29403;DHT22;16382;59.942;30.472;2022-12-16T14:26:14;-5.30;99.90
29403;DHT22;16382;59.942;30.472;2022-12-16T14:29:19;-5.40;99.90
29403;DHT22;16382;59.942;30.472;2022-12-16T14:32:23;-5.40;99.90
29403;DHT22;16382;59.942;30.472;2022-12-16T14:35:16;-5.30;99.90
29403;DHT22;16382;59.942;30.472;2022-12-16T14:38:23;-5.40;99.90
29403;DHT22;16382;59.942;30.472;2022-12-16T14:41:11;-5.40;99.90
29403;DHT22;16382;59.942;30.472;2022-12-16T14:43:57;-5.40;99.90
29403;DHT22;16382;59.942;30.472;2022-12-16T14:46:48;-5.40;99.90
29403;DHT22;16382;59.942;30.472;2022-12-16T14:49:34;-5.40;99.90
29403;DHT22;16382;59.942;30.472;2022-12-16T14:52:20;-5.30;99.90
29403;DHT22;16382;59.942;30.472;2022-12-16T14:55:16;-5.30;99.90
29403;DHT22;16382;59.942;30.472;2022-12-16T14:58:08;-5.30;99.90
29403;DHT22;16382;59.942;30.472;2022-12-16T15:00:57;-5.30;99.90
29403;DHT22;16382;59.942;30.472;2022-12-16T15:03:45;-5.30;99.90
29403;DHT22;16382;59.942;30.472;2022-12-16T15:06:33;-5.20;99.90
29403;DHT22;16382;59.942;30.472;2022-12-16T15:09:24;-5.20;99.90
29403;DHT22;16382;59.942;30.472;2022-12-16T15:12:14;-5.20;99.90
29403;DHT22;16382;59.942;30.472;2022-12-16T15:15:03;-5.20;99.90
29403;DHT22;16382;59.942;30.472;2022-12-16T15:17:54;-5.10;99.90
29403;DHT22;16382;59.942;30.472;2022-12-16T15:20:47;-5.10;99.90
29403;DHT22;16382;59.942;30.472;2022-12-16T15:23:38;-5.00;99.90
29403;DHT22;16382;59.942;30.472;2022-12-16T15:26:26;-5.00;99.90
29403;DHT22;16382;59.942;30.472;2022-12-16T15:29:31;-4.90;99.90
29403;DHT22;16382;59.942;30.472;2022-12-16T15:32:31;-4.90;99.90
29403;DHT22;16382;59.942;30.472;2022-12-16T15:35:29;-4.90;99.90
29403;DHT22;16382;59.942;30.472;2022-12-16T15:38:22;-4.80;99.90
29403;DHT22;16382;59.942;30.472;2022-12-16T15:41:20;-4.80;99.90
29403;DHT22;16382;59.942;30.472;2022-12-16T15:44:15;-4.80;99.90
29403;DHT22;16382;59.942;30.472;2022-12-16T15:47:02;-4.70;99.90
29403;DHT22;16382;59.942;30.472;2022-12-16T15:49:48;-4.60;99.90
29403;DHT22;16382;59.942;30.472;2022-12-16T15:52:39;-4.50;99.90
29403;DHT22;16382;59.942;30.472;2022-12-16T15:55:28;-4.40;99.90
29403;DHT22;16382;59.942;30.472;2022-12-16T15:58:19;-4.40;99.90
29403;DHT22;16382;59.942;30.472;2022-12-16T16:01:07;-4.40;99.90
29403;DHT22;16382;59.942;30.472;2022-12-16T16:03:55;-4.40;99.90
29403;DHT22;16382;59.942;30.472;2022-12-16T16:06:44;-4.30;99.90
29403;DHT22;16382;59.942;30.472;2022-12-16T16:09:33;-4.30;99.90
29403;DHT22;16382;59.942;30.472;2022-12-16T16:12:20;-4.20;99.90
29403;DHT22;16382;59.942;30.472;2022-12-16T16:15:07;-4.20;99.90
29403;DHT22;16382;59.942;30.472;2022-12-16T16:17:56;-4.20;99.90
29403;DHT22;16382;59.942;30.472;2022-12-16T16:20:44;-4.20;99.90
29403;DHT22;16382;59.942;30.472;2022-12-16T16:23:29;-4.20;99.90
29403;DHT22;16382;59.942;30.472;2022-12-16T16:26:17;-4.10;99.90
29403;DHT22;16382;59.942;30.472;2022-12-16T16:29:04;-4.00;99.90
29403;DHT22;16382;59.942;30.472;2022-12-16T16:31:50;-4.00;99.90
29403;DHT22;16382;59.942;30.472;2022-12-16T16:34:36;-3.90;99.90
29403;DHT22;16382;59.942;30.472;2022-12-16T16:37:22;-3.90;99.90
29403;DHT22;16382;59.942;30.472;2022-12-16T16:40:17;-3.90;99.90
29403;DHT22;16382;59.942;30.472;2022-12-16T16:43:05;-3.90;99.90
29403;DHT22;16382;59.942;30.472;2022-12-16T16:45:52;-3.90;99.90
29403;DHT22;16382;59.942;30.472;2022-12-16T16:48:44;-3.90;99.90
29403;DHT22;16382;59.942;30.472;2022-12-16T16:51:30;-3.90;99.90
29403;DHT22;16382;59.942;30.472;2022-12-16T16:54:16;-3.80;99.90
29403;DHT22;16382;59.942;30.472;2022-12-16T16:57:02;-3.60;99.90
29403;DHT22;16382;59.942;30.472;2022-12-16T16:59:48;-3.40;99.90
29403;DHT22;16382;59.942;30.472;2022-12-16T17:02:33;-3.30;99.90
29403;DHT22;16382;59.942;30.472;2022-12-16T17:05:18;-3.30;99.90
29403;DHT22;16382;59.942;30.472;2022-12-16T17:08:03;-3.20;99.90
29403;DHT22;16382;59.942;30.472;2022-12-16T17:11:14;-3.20;99.90
29403;DHT22;16382;59.942;30.472;2022-12-16T17:14:01;-3.10;99.90
29403;DHT22;16382;59.942;30.472;2022-12-16T17:16:46;-3.20;99.90